sensor_id;sensor_type;location;lat;lon;timestamp;temperature;humidity
11934;DHT22;6026;48.784;9.198;2023-06-14T00:00:38;17.20;96.90
11934;DHT22;6026;48.784;9.198;2023-06-14T00:03:07;17.20;96.70
11934;DHT22;6026;48.784;9.198;2023-06-14T00:05:37;17.10;96.90
11934;DHT22;6026;48.784;9.198;2023-06-14T00:08:09;17.00;96.90
11934;DHT22;6026;48.784;9.198;2023-06-14T00:10:38;16.90;96.80
11934;DHT22;6026;48.784;9.198;2023-06-14T00:13:06;16.90;96.80
11934;DHT22;6026;48.784;9.198;2023-06-14T00:15:32;16.90;96.80
11934;DHT22;6026;48.784;9.198;2023-06-14T00:17:58;16.80;96.90
11934;DHT22;6026;48.784;9.198;2023-06-14T00:20:27;16.80;97.50
11934;DHT22;6026;48.784;9.198;2023-06-14T00:22:53;16.80;97.50
11934;DHT22;6026;48.784;9.198;2023-06-14T00:25:21;16.80;97.50
11934;DHT22;6026;48.784;9.198;2023-06-14T00:27:47;16.70;97.60
11934;DHT22;6026;48.784;9.198;2023-06-14T00:30:13;16.70;97.90
11934;DHT22;6026;48.784;9.198;2023-06-14T00:32:39;16.70;98.20
11934;DHT22;6026;48.784;9.198;2023-06-14T00:35:04;16.70;98.30
11934;DHT22;6026;48.784;9.198;2023-06-14T00:37:30;16.70;98.30
11934;DHT22;6026;48.784;9.198;2023-06-14T00:39:55;16.60;98.30
11934;DHT22;6026;48.784;9.198;2023-06-14T00:42:28;16.60;98.60
11934;DHT22;6026;48.784;9.198;2023-06-14T00:44:54;16.60;98.70
11934;DHT22;6026;48.784;9.198;2023-06-14T00:47:20;16.50;98.80
11934;DHT22;6026;48.784;9.198;2023-06-14T00:49:47;16.50;98.80
11934;DHT22;6026;48.784;9.198;2023-06-14T00:52:13;16.40;98.80
11934;DHT22;6026;48.784;9.198;2023-06-14T00:54:43;16.40;98.80
11934;DHT22;6026;48.784;9.198;2023-06-14T00:57:09;16.40;98.80
11934;DHT22;6026;48.784;9.198;2023-06-14T00:59:41;16.30;98.80
11934;DHT22;6026;48.784;9.198;2023-06-14T01:02:08;16.20;99.10
11934;DHT22;6026;48.784;9.198;2023-06-14T01:04:33;16.20;98.70
11934;DHT22;6026;48.784;9.198;2023-06-14T01:07:10;16.10;98.70
11934;DHT22;6026;48.784;9.198;2023-06-14T01:10:03;16.10;98.80
11934;DHT22;6026;48.784;9.198;2023-06-14T01:15:21;16.00;99.30
11934;DHT22;6026;48.784;9.198;2023-06-14T01:17:49;16.00;99.80
11934;DHT22;6026;48.784;9.198;2023-06-14T01:20:17;15.90;99.70
11934;DHT22;6026;48.784;9.198;2023-06-14T01:22:53;15.80;99.90
11934;DHT22;6026;48.784;9.198;2023-06-14T01:25:19;15.80;99.90
11934;DHT22;6026;48.784;9.198;2023-06-14T01:28:00;15.80;99.90
11934;DHT22;6026;48.784;9.198;2023-06-14T01:30:27;15.80;99.90
11934;DHT22;6026;48.784;9.198;2023-06-14T01:32:54;15.80;99.90
11934;DHT22;6026;48.784;9.198;2023-06-14T01:35:21;15.70;99.90
11934;DHT22;6026;48.784;9.198;2023-06-14T01:37:48;15.70;99.90
11934;DHT22;6026;48.784;9.198;2023-06-14T01:40:15;15.70;99.90
11934;DHT22;6026;48.784;9.198;2023-06-14T01:42:42;15.70;99.90
11934;DHT22;6026;48.784;9.198;2023-06-14T01:45:09;15.60;99.90
11934;DHT22;6026;48.784;9.198;2023-06-14T01:47:35;15.60;99.90
11934;DHT22;6026;48.784;9.198;2023-06-14T01:50:02;15.60;99.90
11934;DHT22;6026;48.784;9.198;2023-06-14T01:52:28;15.50;99.90
11934;DHT22;6026;48.784;9.198;2023-06-14T01:54:54;15.50;99.90
11934;DHT22;6026;48.784;9.198;2023-06-14T01:57:19;15.40;99.90
11934;DHT22;6026;48.784;9.198;2023-06-14T01:59:46;15.40;99.90
11934;DHT22;6026;48.784;9.198;2023-06-14T02:02:14;15.40;99.90
11934;DHT22;6026;48.784;9.198;2023-06-14T02:04:41;15.40;99.90
11934;DHT22;6026;48.784;9.198;2023-06-14T02:07:07;15.30;99.90
11934;DHT22;6026;48.784;9.198;2023-06-14T02:09:33;15.30;99.90
11934;DHT22;6026;48.784;9.198;2023-06-14T02:11:59;15.20;99.90
11934;DHT22;6026;48.784;9.198;2023-06-14T02:14:25;15.20;99.90
11934;DHT22;6026;48.784;9.198;2023-06-14T02:16:51;15.20;99.90
11934;DHT22;6026;48.784;9.198;2023-06-14T02:19:19;15.10;99.90
11934;DHT22;6026;48.784;9.198;2023-06-14T02:21:45;15.10;99.90
11934;DHT22;6026;48.784;9.198;2023-06-14T02:24:10;15.10;99.90
11934;DHT22;6026;48.784;9.198;2023-06-14T02:26:36;15.00;99.90
11934;DHT22;6026;48.784;9.198;2023-06-14T02:29:06;15.00;99.90
11934;DHT22;6026;48.784;9.198;2023-06-14T02:31:35;14.90;99.90
11934;DHT22;6026;48.784;9.198;2023-06-14T02:34:00;14.90;99.90
11934;DHT22;6026;48.784;9.198;2023-06-14T02:36:26;14.80;99.90
11934;DHT22;6026;48.784;9.198;2023-06-14T02:38:51;14.80;99.90
11934;DHT22;6026;48.784;9.198;2023-06-14T02:41:19;14.80;99.90
11934;DHT22;6026;48.784;9.198;2023-06-14T02:43:45;14.70;99.90
11934;DHT22;6026;48.784;9.198;2023-06-14T02:46:10;14.70;99.90
11934;DHT22;6026;48.784;9.198;2023-06-14T02:48:36;14.70;99.90
11934;DHT22;6026;48.784;9.198;2023-06-14T02:51:02;14.70;99.90
11934;DHT22;6026;48.784;9.198;2023-06-14T02:53:28;14.60;99.90
11934;DHT22;6026;48.784;9.198;2023-06-14T02:55:53;14.70;99.90
11934;DHT22;6026;48.784;9.198;2023-06-14T02:58:20;14.60;99.90
11934;DHT22;6026;48.784;9.198;2023-06-14T03:00:46;14.60;99.90
11934;DHT22;6026;48.784;9.198;2023-06-14T03:03:12;14.50;99.90
11934;DHT22;6026;48.784;9.198;2023-06-14T03:05:45;14.50;99.90
11934;DHT22;6026;48.784;9.198;2023-06-14T03:08:13;14.50;99.90
11934;DHT22;6026;48.784;9.198;2023-06-14T03:10:43;14.40;99.90
11934;DHT22;6026;48.784;9.198;2023-06-14T03:13:08;14.40;99.90
11934;DHT22;6026;48.784;9.198;2023-06-14T03:15:36;14.40;99.90
11934;DHT22;6026;48.784;9.198;2023-06-14T03:18:01;14.40;99.90
11934;DHT22;6026;48.784;9.198;2023-06-14T03:20:29;14.40;99.90
11934;DHT22;6026;48.784;9.198;2023-06-14T03:22:59;14.40;99.90
11934;DHT22;6026;48.784;9.198;2023-06-14T03:25:25;14.40;99.90
11934;DHT22;6026;48.784;9.198;2023-06-14T03:27:51;14.30;99.90
11934;DHT22;6026;48.784;9.198;2023-06-14T03:30:16;14.30;99.90
11934;DHT22;6026;48.784;9.198;2023-06-14T03:32:42;14.20;99.90
11934;DHT22;6026;48.784;9.198;2023-06-14T03:35:08;14.20;99.90
11934;DHT22;6026;48.784;9.198;2023-06-14T03:37:34;14.20;99.90
11934;DHT22;6026;48.784;9.198;2023-06-14T03:40:00;14.20;99.90
11934;DHT22;6026;48.784;9.198;2023-06-14T03:42:26;14.20;99.90
11934;DHT22;6026;48.784;9.198;2023-06-14T03:44:51;14.20;99.90
11934;DHT22;6026;48.784;9.198;2023-06-14T03:47:17;14.20;99.90
11934;DHT22;6026;48.784;9.198;2023-06-14T03:49:42;14.20;99.90
11934;DHT22;6026;48.784;9.198;2023-06-14T03:52:08;14.10;99.90
11934;DHT22;6026;48.784;9.198;2023-06-14T03:54:33;14.20;99.90
11934;DHT22;6026;48.784;9.198;2023-06-14T03:56:59;14.20;99.90
11934;DHT22;6026;48.784;9.198;2023-06-14T03:59:26;14.20;99.90
11934;DHT22;6026;48.784;9.198;2023-06-14T04:01:53;14.20;99.90
11934;DHT22;6026;48.784;9.198;2023-06-14T04:04:18;14.20;99.90
11934;DHT22;6026;48.784;9.198;2023-06-14T04:06:44;14.20;99.90
11934;DHT22;6026;48.784;9.198;2023-06-14T04:09:13;14.30;99.90
11934;DHT22;6026;48.784;9.198;2023-06-14T04:11:39;14.30;99.90
11934;DHT22;6026;48.784;9.198;2023-06-14T04:14:05;14.30;99.90
11934;DHT22;6026;48.784;9.198;2023-06-14T04:16:31;14.40;99.90
11934;DHT22;6026;48.784;9.198;2023-06-14T04:18:57;14.30;99.90
11934;DHT22;6026;48.784;9.198;2023-06-14T04:21:23;14.40;99.90
11934;DHT22;6026;48.784;9.198;2023-06-14T04:23:49;14.40;99.90
11934;DHT22;6026;48.784;9.198;2023-06-14T04:26:18;14.50;99.90
11934;DHT22;6026;48.784;9.198;2023-06-14T04:28:45;14.50;99.90
11934;DHT22;6026;48.784;9.198;2023-06-14T04:31:12;14.60;99.90
11934;DHT22;6026;48.784;9.198;2023-06-14T04:33:38;14.60;99.90
11934;DHT22;6026;48.784;9.198;2023-06-14T04:36:11;14.60;99.90
11934;DHT22;6026;48.784;9.198;2023-06-14T04:38:38;14.70;99.90
11934;DHT22;6026;48.784;9.198;2023-06-14T04:41:04;14.70;99.90
11934;DHT22;6026;48.784;9.198;2023-06-14T04:43:30;14.80;99.90
11934;DHT22;6026;48.784;9.198;2023-06-14T04:45:57;14.80;99.90
11934;DHT22;6026;48.784;9.198;2023-06-14T04:48:22;14.90;99.90
11934;DHT22;6026;48.784;9.198;2023-06-14T04:50:48;14.90;99.90
11934;DHT22;6026;48.784;9.198;2023-06-14T04:53:19;15.00;99.90
11934;DHT22;6026;48.784;9.198;2023-06-14T04:55:47;15.00;99.90
11934;DHT22;6026;48.784;9.198;2023-06-14T04:58:12;15.10;99.90
11934;DHT22;6026;48.784;9.198;2023-06-14T05:00:38;15.20;99.90
11934;DHT22;6026;48.784;9.198;2023-06-14T05:03:04;15.20;99.90
11934;DHT22;6026;48.784;9.198;2023-06-14T05:05:31;15.30;99.90
11934;DHT22;6026;48.784;9.198;2023-06-14T05:07:57;15.30;99.90
11934;DHT22;6026;48.784;9.198;2023-06-14T05:10:24;15.40;99.90
11934;DHT22;6026;48.784;9.198;2023-06-14T05:12:49;15.40;99.90
11934;DHT22;6026;48.784;9.198;2023-06-14T05:15:15;15.50;99.90
11934;DHT22;6026;48.784;9.198;2023-06-14T05:17:41;15.50;99.90
11934;DHT22;6026;48.784;9.198;2023-06-14T05:20:07;15.60;99.90
11934;DHT22;6026;48.784;9.198;2023-06-14T05:22:35;15.70;99.90
11934;DHT22;6026;48.784;9.198;2023-06-14T05:25:01;15.70;99.90
11934;DHT22;6026;48.784;9.198;2023-06-14T05:27:27;15.70;99.90
11934;DHT22;6026;48.784;9.198;2023-06-14T05:29:52;15.80;99.90
11934;DHT22;6026;48.784;9.198;2023-06-14T05:32:21;15.90;99.90
11934;DHT22;6026;48.784;9.198;2023-06-14T05:34:46;16.00;99.90
11934;DHT22;6026;48.784;9.198;2023-06-14T05:37:12;16.00;99.90
11934;DHT22;6026;48.784;9.198;2023-06-14T05:39:38;16.10;99.90
11934;DHT22;6026;48.784;9.198;2023-06-14T05:42:04;16.10;99.90
11934;DHT22;6026;48.784;9.198;2023-06-14T05:44:29;16.20;99.90
11934;DHT22;6026;48.784;9.198;2023-06-14T05:46:55;16.30;99.90
11934;DHT22;6026;48.784;9.198;2023-06-14T05:49:21;16.40;99.90
11934;DHT22;6026;48.784;9.198;2023-06-14T05:51:46;16.40;99.90
11934;DHT22;6026;48.784;9.198;2023-06-14T05:54:12;16.50;99.90
11934;DHT22;6026;48.784;9.198;2023-06-14T05:56:37;16.50;99.90
11934;DHT22;6026;48.784;9.198;2023-06-14T05:59:03;16.60;99.90
11934;DHT22;6026;48.784;9.198;2023-06-14T06:01:28;16.70;99.90
11934;DHT22;6026;48.784;9.198;2023-06-14T06:03:54;16.80;99.90
11934;DHT22;6026;48.784;9.198;2023-06-14T06:06:19;16.90;99.90
11934;DHT22;6026;48.784;9.198;2023-06-14T06:08:45;17.00;99.90
11934;DHT22;6026;48.784;9.198;2023-06-14T06:11:11;17.10;99.90
11934;DHT22;6026;48.784;9.198;2023-06-14T06:13:37;17.20;99.90
11934;DHT22;6026;48.784;9.198;2023-06-14T06:16:04;17.60;99.90
11934;DHT22;6026;48.784;9.198;2023-06-14T06:18:30;18.60;99.90
11934;DHT22;6026;48.784;9.198;2023-06-14T06:20:55;20.10;99.40
11934;DHT22;6026;48.784;9.198;2023-06-14T06:23:21;21.30;98.10
11934;DHT22;6026;48.784;9.198;2023-06-14T06:25:46;22.20;97.20
11934;DHT22;6026;48.784;9.198;2023-06-14T06:28:12;23.20;96.90
11934;DHT22;6026;48.784;9.198;2023-06-14T06:30:38;24.10;95.50
11934;DHT22;6026;48.784;9.198;2023-06-14T06:33:04;24.70;95.20
11934;DHT22;6026;48.784;9.198;2023-06-14T06:35:29;25.10;94.40
11934;DHT22;6026;48.784;9.198;2023-06-14T06:37:56;25.50;93.90
11934;DHT22;6026;48.784;9.198;2023-06-14T06:40:22;25.70;93.40
11934;DHT22;6026;48.784;9.198;2023-06-14T06:42:47;25.90;93.00
11934;DHT22;6026;48.784;9.198;2023-06-14T06:45:13;26.20;92.30
11934;DHT22;6026;48.784;9.198;2023-06-14T06:47:39;26.20;92.80
11934;DHT22;6026;48.784;9.198;2023-06-14T06:50:05;26.40;91.90
11934;DHT22;6026;48.784;9.198;2023-06-14T06:52:31;26.30;91.90
11934;DHT22;6026;48.784;9.198;2023-06-14T06:54:57;26.30;91.70
11934;DHT22;6026;48.784;9.198;2023-06-14T06:57:22;26.30;91.90
11934;DHT22;6026;48.784;9.198;2023-06-14T06:59:49;26.20;92.00
11934;DHT22;6026;48.784;9.198;2023-06-14T07:02:15;26.20;92.00
11934;DHT22;6026;48.784;9.198;2023-06-14T07:04:40;26.20;92.30
11934;DHT22;6026;48.784;9.198;2023-06-14T07:07:06;26.20;91.70
11934;DHT22;6026;48.784;9.198;2023-06-14T07:09:32;26.20;91.90
11934;DHT22;6026;48.784;9.198;2023-06-14T07:11:57;26.30;91.80
11934;DHT22;6026;48.784;9.198;2023-06-14T07:14:23;26.40;91.00
11934;DHT22;6026;48.784;9.198;2023-06-14T07:16:49;26.30;90.90
11934;DHT22;6026;48.784;9.198;2023-06-14T07:19:15;26.40;91.00
11934;DHT22;6026;48.784;9.198;2023-06-14T07:21:41;26.30;91.10
11934;DHT22;6026;48.784;9.198;2023-06-14T07:24:06;26.30;91.40
11934;DHT22;6026;48.784;9.198;2023-06-14T07:26:33;26.20;90.90
11934;DHT22;6026;48.784;9.198;2023-06-14T07:28:58;26.10;90.90
11934;DHT22;6026;48.784;9.198;2023-06-14T07:31:24;26.00;90.90
11934;DHT22;6026;48.784;9.198;2023-06-14T07:33:50;26.00;90.30
11934;DHT22;6026;48.784;9.198;2023-06-14T07:36:15;26.00;90.60
11934;DHT22;6026;48.784;9.198;2023-06-14T07:38:43;26.00;90.70
11934;DHT22;6026;48.784;9.198;2023-06-14T07:41:08;25.90;90.80
11934;DHT22;6026;48.784;9.198;2023-06-14T07:43:34;25.90;91.50
11934;DHT22;6026;48.784;9.198;2023-06-14T07:46:00;25.70;91.40
11934;DHT22;6026;48.784;9.198;2023-06-14T07:48:26;25.70;91.10
11934;DHT22;6026;48.784;9.198;2023-06-14T07:50:51;25.70;91.60
11934;DHT22;6026;48.784;9.198;2023-06-14T07:53:17;25.80;91.60
11934;DHT22;6026;48.784;9.198;2023-06-14T07:55:42;25.90;91.70
11934;DHT22;6026;48.784;9.198;2023-06-14T07:58:08;26.00;91.70
11934;DHT22;6026;48.784;9.198;2023-06-14T08:00:34;25.90;91.70
11934;DHT22;6026;48.784;9.198;2023-06-14T08:03:00;26.00;91.20
11934;DHT22;6026;48.784;9.198;2023-06-14T08:05:26;26.00;91.10
11934;DHT22;6026;48.784;9.198;2023-06-14T08:07:52;25.90;91.70
11934;DHT22;6026;48.784;9.198;2023-06-14T08:10:18;26.00;91.90
11934;DHT22;6026;48.784;9.198;2023-06-14T08:12:43;25.90;91.70
11934;DHT22;6026;48.784;9.198;2023-06-14T08:15:10;26.00;92.90
11934;DHT22;6026;48.784;9.198;2023-06-14T08:17:35;26.20;92.40
11934;DHT22;6026;48.784;9.198;2023-06-14T08:20:02;26.20;92.60
11934;DHT22;6026;48.784;9.198;2023-06-14T08:22:29;26.40;91.90
11934;DHT22;6026;48.784;9.198;2023-06-14T08:24:58;26.50;92.90
11934;DHT22;6026;48.784;9.198;2023-06-14T08:27:23;26.60;92.40
11934;DHT22;6026;48.784;9.198;2023-06-14T08:29:49;26.60;92.40
11934;DHT22;6026;48.784;9.198;2023-06-14T08:32:15;26.70;92.80
11934;DHT22;6026;48.784;9.198;2023-06-14T08:34:40;26.90;91.90
11934;DHT22;6026;48.784;9.198;2023-06-14T08:37:06;26.90;92.60
11934;DHT22;6026;48.784;9.198;2023-06-14T08:39:33;27.10;92.00
11934;DHT22;6026;48.784;9.198;2023-06-14T08:42:01;27.20;92.50
11934;DHT22;6026;48.784;9.198;2023-06-14T08:44:26;27.10;92.70
11934;DHT22;6026;48.784;9.198;2023-06-14T08:46:53;27.10;92.50
11934;DHT22;6026;48.784;9.198;2023-06-14T08:49:20;27.20;92.30
11934;DHT22;6026;48.784;9.198;2023-06-14T08:51:47;27.20;93.20
11934;DHT22;6026;48.784;9.198;2023-06-14T08:54:17;27.40;91.30
11934;DHT22;6026;48.784;9.198;2023-06-14T08:56:46;27.50;90.70
11934;DHT22;6026;48.784;9.198;2023-06-14T08:59:13;27.60;90.60
11934;DHT22;6026;48.784;9.198;2023-06-14T09:01:40;27.70;91.00
11934;DHT22;6026;48.784;9.198;2023-06-14T09:04:06;27.70;90.10
11934;DHT22;6026;48.784;9.198;2023-06-14T09:06:32;27.80;91.20
11934;DHT22;6026;48.784;9.198;2023-06-14T09:08:58;27.80;91.50
11934;DHT22;6026;48.784;9.198;2023-06-14T09:11:24;28.00;91.30
11934;DHT22;6026;48.784;9.198;2023-06-14T09:13:51;28.20;90.60
11934;DHT22;6026;48.784;9.198;2023-06-14T09:16:17;28.30;90.20
11934;DHT22;6026;48.784;9.198;2023-06-14T09:18:44;28.20;89.50
11934;DHT22;6026;48.784;9.198;2023-06-14T09:21:14;28.20;91.00
11934;DHT22;6026;48.784;9.198;2023-06-14T09:23:45;28.30;88.20
11934;DHT22;6026;48.784;9.198;2023-06-14T09:28:44;28.30;89.30
11934;DHT22;6026;48.784;9.198;2023-06-14T09:31:14;28.50;87.90
11934;DHT22;6026;48.784;9.198;2023-06-14T09:34:02;28.60;86.70
11934;DHT22;6026;48.784;9.198;2023-06-14T09:36:27;28.50;88.10
11934;DHT22;6026;48.784;9.198;2023-06-14T09:38:58;28.60;88.60
11934;DHT22;6026;48.784;9.198;2023-06-14T09:41:35;28.70;90.50
11934;DHT22;6026;48.784;9.198;2023-06-14T09:44:03;28.90;90.50
11934;DHT22;6026;48.784;9.198;2023-06-14T09:46:29;29.00;90.60
11934;DHT22;6026;48.784;9.198;2023-06-14T09:48:56;29.20;90.80
11934;DHT22;6026;48.784;9.198;2023-06-14T09:51:27;29.50;90.10
11934;DHT22;6026;48.784;9.198;2023-06-14T09:53:55;29.70;90.30
11934;DHT22;6026;48.784;9.198;2023-06-14T09:56:29;29.80;87.90
11934;DHT22;6026;48.784;9.198;2023-06-14T09:58:57;30.00;87.70
11934;DHT22;6026;48.784;9.198;2023-06-14T10:01:24;30.10;86.70
11934;DHT22;6026;48.784;9.198;2023-06-14T10:04:04;29.90;87.20
11934;DHT22;6026;48.784;9.198;2023-06-14T10:06:31;29.60;84.20
11934;DHT22;6026;48.784;9.198;2023-06-14T10:08:58;29.40;80.00
11934;DHT22;6026;48.784;9.198;2023-06-14T10:11:28;29.20;80.00
11934;DHT22;6026;48.784;9.198;2023-06-14T10:13:55;28.90;80.70
11934;DHT22;6026;48.784;9.198;2023-06-14T10:16:31;28.80;78.80
11934;DHT22;6026;48.784;9.198;2023-06-14T10:19:07;29.00;78.40
11934;DHT22;6026;48.784;9.198;2023-06-14T10:21:58;29.10;81.70
11934;DHT22;6026;48.784;9.198;2023-06-14T10:24:45;29.40;80.60
11934;DHT22;6026;48.784;9.198;2023-06-14T10:27:14;29.50;82.10
11934;DHT22;6026;48.784;9.198;2023-06-14T10:30:09;29.70;78.80
11934;DHT22;6026;48.784;9.198;2023-06-14T10:32:35;29.80;82.90
11934;DHT22;6026;48.784;9.198;2023-06-14T10:35:07;29.90;84.80
11934;DHT22;6026;48.784;9.198;2023-06-14T10:37:33;30.20;84.70
11934;DHT22;6026;48.784;9.198;2023-06-14T10:39:59;30.20;84.50
11934;DHT22;6026;48.784;9.198;2023-06-14T10:42:34;30.20;83.60
11934;DHT22;6026;48.784;9.198;2023-06-14T10:45:00;30.20;82.80
11934;DHT22;6026;48.784;9.198;2023-06-14T10:47:32;29.80;83.70
11934;DHT22;6026;48.784;9.198;2023-06-14T10:50:08;29.50;83.40
11934;DHT22;6026;48.784;9.198;2023-06-14T10:52:38;29.00;83.20
11934;DHT22;6026;48.784;9.198;2023-06-14T10:55:10;28.70;84.00
11934;DHT22;6026;48.784;9.198;2023-06-14T10:57:50;28.60;84.80
11934;DHT22;6026;48.784;9.198;2023-06-14T11:00:19;28.70;85.80
11934;DHT22;6026;48.784;9.198;2023-06-14T11:10:59;29.60;82.00
11934;DHT22;6026;48.784;9.198;2023-06-14T11:13:26;29.90;80.90
11934;DHT22;6026;48.784;9.198;2023-06-14T11:15:52;30.20;80.80
11934;DHT22;6026;48.784;9.198;2023-06-14T11:18:23;30.30;80.00
11934;DHT22;6026;48.784;9.198;2023-06-14T11:20:55;30.20;77.90
11934;DHT22;6026;48.784;9.198;2023-06-14T11:23:21;30.00;82.10
11934;DHT22;6026;48.784;9.198;2023-06-14T11:25:53;30.00;79.80
11934;DHT22;6026;48.784;9.198;2023-06-14T11:28:19;30.30;79.50
11934;DHT22;6026;48.784;9.198;2023-06-14T11:30:47;30.50;79.10
11934;DHT22;6026;48.784;9.198;2023-06-14T11:33:17;30.70;79.40
11934;DHT22;6026;48.784;9.198;2023-06-14T11:35:44;30.80;78.70
11934;DHT22;6026;48.784;9.198;2023-06-14T11:38:10;31.00;75.90
11934;DHT22;6026;48.784;9.198;2023-06-14T11:40:38;31.30;76.00
11934;DHT22;6026;48.784;9.198;2023-06-14T11:43:03;31.30;77.60
11934;DHT22;6026;48.784;9.198;2023-06-14T11:45:30;31.40;77.40
11934;DHT22;6026;48.784;9.198;2023-06-14T11:47:58;31.20;76.00
11934;DHT22;6026;48.784;9.198;2023-06-14T11:50:24;31.40;76.00
11934;DHT22;6026;48.784;9.198;2023-06-14T11:52:54;31.30;75.40
11934;DHT22;6026;48.784;9.198;2023-06-14T11:55:21;31.20;74.50
11934;DHT22;6026;48.784;9.198;2023-06-14T11:57:47;31.20;72.90
11934;DHT22;6026;48.784;9.198;2023-06-14T12:00:13;31.30;77.10
11934;DHT22;6026;48.784;9.198;2023-06-14T12:02:41;31.60;75.00
11934;DHT22;6026;48.784;9.198;2023-06-14T12:05:08;31.50;75.50
11934;DHT22;6026;48.784;9.198;2023-06-14T12:07:37;31.50;75.80
11934;DHT22;6026;48.784;9.198;2023-06-14T12:10:06;31.40;73.50
11934;DHT22;6026;48.784;9.198;2023-06-14T12:12:38;31.40;74.50
11934;DHT22;6026;48.784;9.198;2023-06-14T12:15:05;31.50;75.90
11934;DHT22;6026;48.784;9.198;2023-06-14T12:17:35;31.70;74.60
11934;DHT22;6026;48.784;9.198;2023-06-14T12:20:12;31.60;75.10
11934;DHT22;6026;48.784;9.198;2023-06-14T12:22:59;31.40;74.40
11934;DHT22;6026;48.784;9.198;2023-06-14T12:27:57;31.20;74.80
11934;DHT22;6026;48.784;9.198;2023-06-14T12:30:23;31.10;75.20
11934;DHT22;6026;48.784;9.198;2023-06-14T12:32:49;30.90;75.60
11934;DHT22;6026;48.784;9.198;2023-06-14T12:35:17;30.70;75.00
11934;DHT22;6026;48.784;9.198;2023-06-14T12:37:43;30.70;75.70
11934;DHT22;6026;48.784;9.198;2023-06-14T12:40:09;30.70;76.30
11934;DHT22;6026;48.784;9.198;2023-06-14T12:42:37;30.70;76.50
11934;DHT22;6026;48.784;9.198;2023-06-14T12:45:02;30.70;78.10
11934;DHT22;6026;48.784;9.198;2023-06-14T12:47:28;30.90;76.60
11934;DHT22;6026;48.784;9.198;2023-06-14T12:49:53;31.00;76.30
11934;DHT22;6026;48.784;9.198;2023-06-14T12:52:19;30.70;75.00
11934;DHT22;6026;48.784;9.198;2023-06-14T12:54:45;30.20;74.90
11934;DHT22;6026;48.784;9.198;2023-06-14T12:57:10;29.90;75.30
11934;DHT22;6026;48.784;9.198;2023-06-14T12:59:36;29.60;75.50
11934;DHT22;6026;48.784;9.198;2023-06-14T13:02:15;29.40;76.50
11934;DHT22;6026;48.784;9.198;2023-06-14T13:04:41;29.00;77.50
11934;DHT22;6026;48.784;9.198;2023-06-14T13:07:06;28.80;78.80
11934;DHT22;6026;48.784;9.198;2023-06-14T13:09:32;28.80;78.80
11934;DHT22;6026;48.784;9.198;2023-06-14T13:11:58;28.70;77.80
11934;DHT22;6026;48.784;9.198;2023-06-14T13:14:23;28.90;77.90
11934;DHT22;6026;48.784;9.198;2023-06-14T13:16:50;29.00;79.00
11934;DHT22;6026;48.784;9.198;2023-06-14T13:19:15;29.10;79.00
11934;DHT22;6026;48.784;9.198;2023-06-14T13:21:41;29.20;79.20
11934;DHT22;6026;48.784;9.198;2023-06-14T13:24:06;29.40;79.40
11934;DHT22;6026;48.784;9.198;2023-06-14T13:26:33;29.60;79.20
11934;DHT22;6026;48.784;9.198;2023-06-14T13:28:59;29.80;79.60
11934;DHT22;6026;48.784;9.198;2023-06-14T13:31:25;29.80;79.60
11934;DHT22;6026;48.784;9.198;2023-06-14T13:33:50;30.00;81.10
11934;DHT22;6026;48.784;9.198;2023-06-14T13:36:16;30.10;79.90
11934;DHT22;6026;48.784;9.198;2023-06-14T13:38:41;30.20;80.00
11934;DHT22;6026;48.784;9.198;2023-06-14T13:41:07;30.30;79.30
11934;DHT22;6026;48.784;9.198;2023-06-14T13:43:32;30.30;75.80
11934;DHT22;6026;48.784;9.198;2023-06-14T13:45:58;30.20;77.10
11934;DHT22;6026;48.784;9.198;2023-06-14T13:48:24;29.90;77.60
11934;DHT22;6026;48.784;9.198;2023-06-14T13:50:49;30.00;79.10
11934;DHT22;6026;48.784;9.198;2023-06-14T13:53:15;29.90;77.70
11934;DHT22;6026;48.784;9.198;2023-06-14T13:55:41;29.60;76.50
11934;DHT22;6026;48.784;9.198;2023-06-14T13:58:06;29.40;77.70
11934;DHT22;6026;48.784;9.198;2023-06-14T14:00:32;29.10;78.00
11934;DHT22;6026;48.784;9.198;2023-06-14T14:02:58;28.90;78.30
11934;DHT22;6026;48.784;9.198;2023-06-14T14:05:25;28.70;80.80
11934;DHT22;6026;48.784;9.198;2023-06-14T14:07:55;28.60;80.30
11934;DHT22;6026;48.784;9.198;2023-06-14T14:10:22;28.70;81.60
11934;DHT22;6026;48.784;9.198;2023-06-14T14:12:48;28.80;82.00
11934;DHT22;6026;48.784;9.198;2023-06-14T14:15:14;28.80;82.50
11934;DHT22;6026;48.784;9.198;2023-06-14T14:17:40;29.00;82.10
11934;DHT22;6026;48.784;9.198;2023-06-14T14:20:07;29.20;81.90
11934;DHT22;6026;48.784;9.198;2023-06-14T14:22:33;29.40;81.00
11934;DHT22;6026;48.784;9.198;2023-06-14T14:24:58;29.50;81.10
11934;DHT22;6026;48.784;9.198;2023-06-14T14:27:24;29.40;80.60
11934;DHT22;6026;48.784;9.198;2023-06-14T14:29:49;29.60;80.80
11934;DHT22;6026;48.784;9.198;2023-06-14T14:32:15;29.50;80.50
11934;DHT22;6026;48.784;9.198;2023-06-14T14:34:41;29.30;81.00
11934;DHT22;6026;48.784;9.198;2023-06-14T14:37:06;29.40;80.10
11934;DHT22;6026;48.784;9.198;2023-06-14T14:39:32;29.20;80.60
11934;DHT22;6026;48.784;9.198;2023-06-14T14:41:58;29.10;80.50
11934;DHT22;6026;48.784;9.198;2023-06-14T14:44:23;28.90;80.30
11934;DHT22;6026;48.784;9.198;2023-06-14T14:46:49;28.70;82.30
11934;DHT22;6026;48.784;9.198;2023-06-14T14:49:14;28.60;80.30
11934;DHT22;6026;48.784;9.198;2023-06-14T14:51:40;28.40;80.10
11934;DHT22;6026;48.784;9.198;2023-06-14T14:54:06;28.40;81.10
11934;DHT22;6026;48.784;9.198;2023-06-14T14:56:32;28.40;82.30
11934;DHT22;6026;48.784;9.198;2023-06-14T14:58:57;28.40;83.90
11934;DHT22;6026;48.784;9.198;2023-06-14T15:01:23;28.50;81.20
11934;DHT22;6026;48.784;9.198;2023-06-14T15:03:49;28.40;80.30
11934;DHT22;6026;48.784;9.198;2023-06-14T15:06:14;28.40;80.10
11934;DHT22;6026;48.784;9.198;2023-06-14T15:08:40;28.40;82.70
11934;DHT22;6026;48.784;9.198;2023-06-14T15:11:06;28.40;82.10
11934;DHT22;6026;48.784;9.198;2023-06-14T15:13:32;28.30;82.00
11934;DHT22;6026;48.784;9.198;2023-06-14T15:15:57;28.20;81.50
11934;DHT22;6026;48.784;9.198;2023-06-14T15:18:23;28.20;82.70
11934;DHT22;6026;48.784;9.198;2023-06-14T15:20:49;28.20;83.30
11934;DHT22;6026;48.784;9.198;2023-06-14T15:23:15;28.20;82.00
11934;DHT22;6026;48.784;9.198;2023-06-14T15:25:45;28.00;82.00
11934;DHT22;6026;48.784;9.198;2023-06-14T15:28:12;28.10;82.70
11934;DHT22;6026;48.784;9.198;2023-06-14T15:30:38;28.10;83.10
11934;DHT22;6026;48.784;9.198;2023-06-14T15:33:04;28.10;81.40
11934;DHT22;6026;48.784;9.198;2023-06-14T15:35:30;27.90;82.20
11934;DHT22;6026;48.784;9.198;2023-06-14T15:37:55;27.90;82.00
11934;DHT22;6026;48.784;9.198;2023-06-14T15:40:21;28.00;81.70
11934;DHT22;6026;48.784;9.198;2023-06-14T15:42:46;27.90;81.80
11934;DHT22;6026;48.784;9.198;2023-06-14T15:45:12;27.80;83.80
11934;DHT22;6026;48.784;9.198;2023-06-14T15:47:38;27.70;83.60
11934;DHT22;6026;48.784;9.198;2023-06-14T15:50:05;27.70;83.30
11934;DHT22;6026;48.784;9.198;2023-06-14T15:52:33;27.70;83.00
11934;DHT22;6026;48.784;9.198;2023-06-14T15:54:59;27.50;82.60
11934;DHT22;6026;48.784;9.198;2023-06-14T15:57:24;27.40;81.90
11934;DHT22;6026;48.784;9.198;2023-06-14T15:59:51;27.30;81.80